Time;durP1;ratioP1;P1;durP2;ratioP2;P2;SDS_P1;SDS_P2;PMS_P1;PMS_P2;Temp;Humidity;BMP_temperature;BMP_pressure;BME280_temperature;BME280_humidity;BME280_pressure;Samples;Min_cycle;Max_cycle;Signal;HPM_P1;HPM_P2
2023/01/20 00:00:43;;;;;;;0.00;0.00;;;;;;;;;;6042230;23;20015;-89
2023/01/20 00:03:09;;;;;;;0.00;0.00;;;;;;;;;;6042424;23;20019;-89
2023/01/20 00:05:35;;;;;;;0.00;0.00;;;;;;;;;;6018536;23;20098;-90
2023/01/20 00:08:01;;;;;;;0.00;0.00;;;;;;;;;;6018701;23;20461;-90
2023/01/20 00:10:27;;;;;;;0.00;0.00;;;;;;;;;;6042224;23;20116;-89
2023/01/20 00:12:54;;;;;;;0.00;0.00;;;;;;;;;;6042546;23;20011;-90
2023/01/20 00:15:20;;;;;;;0.00;0.00;;;;;;;;;;6042156;23;20052;-89
2023/01/20 00:17:46;;;;;;;0.00;0.00;;;;;;;;;;6042305;23;20389;-90
2023/01/20 00:20:12;;;;;;;0.00;0.00;;;;;;;;;;6042177;23;20023;-90
2023/01/20 00:22:41;;;;;;;0.00;0.00;;;;;;;;;;6018952;23;20023;-90
2023/01/20 00:25:08;;;;;;;0.00;0.00;;;;;;;;;;6018435;23;20512;-89
2023/01/20 00:27:34;;;;;;;0.00;0.00;;;;;;;;;;6042043;23;20062;-89
2023/01/20 00:30:00;;;;;;;0.00;0.00;;;;;;;;;;6018478;23;20019;-89
2023/01/20 00:32:26;;;;;;;0.00;0.00;;;;;;;;;;6042276;23;20089;-89
2023/01/20 00:34:51;;;;;;;0.00;0.00;;;;;;;;;;6042057;23;20038;-90
2023/01/20 00:37:17;;;;;;;0.00;0.00;;;;;;;;;;6042189;23;20022;-90
2023/01/20 00:39:43;;;;;;;0.00;0.00;;;;;;;;;;6043337;23;20057;-91
2023/01/20 00:42:09;;;;;;;0.00;0.00;;;;;;;;;;6044336;23;20037;-90
2023/01/20 00:44:35;;;;;;;0.00;0.00;;;;;;;;;;6020384;23;20018;-90
2023/01/20 00:47:01;;;;;;;0.00;0.00;;;;;;;;;;6044244;23;20333;-89
2023/01/20 00:49:27;;;;;;;0.00;0.00;;;;;;;;;;6044132;23;20026;-89
2023/01/20 00:51:53;;;;;;;0.00;0.00;;;;;;;;;;6043958;23;20337;-89
2023/01/20 00:54:19;;;;;;;0.00;0.00;;;;;;;;;;6044115;23;20081;-90
2023/01/20 00:56:45;;;;;;;0.00;0.00;;;;;;;;;;6043744;23;20019;-89
2023/01/20 00:59:11;;;;;;;0.00;0.00;;;;;;;;;;6020373;23;20070;-89
2023/01/20 01:01:37;;;;;;;0.00;0.00;;;;;;;;;;6043817;23;20094;-89
2023/01/20 01:04:03;;;;;;;0.25;0.13;;;;;;;;;;6044058;23;20087;-89
2023/01/20 01:06:29;;;;;;;0.00;0.00;;;;;;;;;;6020328;23;20019;-89
2023/01/20 01:08:56;;;;;;;0.00;0.00;;;;;;;;;;6043940;23;20102;-90
2023/01/20 01:11:22;;;;;;;0.20;0.10;;;;;;;;;;6044470;23;20015;-89
2023/01/20 01:13:48;;;;;;;0.00;0.00;;;;;;;;;;6020226;23;20014;-89
2023/01/20 01:16:15;;;;;;;0.00;0.00;;;;;;;;;;6020030;23;20141;-90
2023/01/20 01:18:41;;;;;;;0.00;0.00;;;;;;;;;;6043893;23;20026;-89
2023/01/20 01:21:08;;;;;;;0.00;0.00;;;;;;;;;;6019806;23;20057;-90
2023/01/20 01:23:34;;;;;;;0.00;0.00;;;;;;;;;;6019926;23;20066;-88
2023/01/20 01:26:00;;;;;;;0.00;0.00;;;;;;;;;;6019806;23;20057;-89
2023/01/20 01:28:26;;;;;;;0.00;0.00;;;;;;;;;;6020038;23;20026;-90
2023/01/20 01:30:52;;;;;;;0.00;0.00;;;;;;;;;;6019757;23;20014;-89
2023/01/20 01:33:18;;;;;;;0.00;0.00;;;;;;;;;;6043685;23;20019;-90
2023/01/20 01:35:53;;;;;;;0.00;0.00;;;;;;;;;;6043442;23;20445;-89
2023/01/20 01:38:19;;;;;;;0.00;0.00;;;;;;;;;;6043592;23;20026;-89
2023/01/20 01:40:52;;;;;;;0.00;0.00;;;;;;;;;;6019778;23;20015;-89
2023/01/20 01:43:28;;;;;;;0.00;0.00;;;;;;;;;;6043592;23;20077;-89
2023/01/20 01:45:55;;;;;;;0.20;0.15;;;;;;;;;;6043348;23;20015;-89
2023/01/20 01:48:23;;;;;;;0.00;0.00;;;;;;;;;;6043451;23;20449;-89
2023/01/20 01:51:02;;;;;;;0.00;0.00;;;;;;;;;;6042785;23;20348;-90
2023/01/20 01:53:30;;;;;;;0.00;0.00;;;;;;;;;;6019734;23;20448;-89
2023/01/20 01:55:58;;;;;;;0.00;0.00;;;;;;;;;;6043288;23;20022;-89
2023/01/20 01:58:27;;;;;;;0.00;0.00;;;;;;;;;;6043356;23;20421;-89
2023/01/20 02:00:53;;;;;;;0.00;0.00;;;;;;;;;;6043326;23;20015;-89
2023/01/20 02:03:20;;;;;;;0.00;0.00;;;;;;;;;;6019841;23;20078;-89
2023/01/20 02:05:47;;;;;;;0.00;0.00;;;;;;;;;;6043474;23;20023;-89
2023/01/20 02:08:13;;;;;;;0.00;0.00;;;;;;;;;;6043218;23;20046;-90
2023/01/20 02:10:39;;;;;;;0.00;0.00;;;;;;;;;;6043199;23;20065;-90
2023/01/20 02:13:05;;;;;;;0.00;0.00;;;;;;;;;;6043383;23;20441;-88
2023/01/20 02:15:38;;;;;;;0.22;0.13;;;;;;;;;;6019769;23;20015;-89
2023/01/20 02:18:07;;;;;;;0.00;0.00;;;;;;;;;;6019729;23;20015;-89
2023/01/20 02:20:33;;;;;;;0.00;0.00;;;;;;;;;;6019454;23;20015;-89
2023/01/20 02:23:06;;;;;;;0.00;0.00;;;;;;;;;;6043180;23;20135;-89
2023/01/20 02:25:39;;;;;;;0.00;0.00;;;;;;;;;;6043245;23;20130;-89
2023/01/20 02:28:05;;;;;;;0.00;0.00;;;;;;;;;;6042866;23;20023;-89
2023/01/20 02:30:31;;;;;;;0.00;0.00;;;;;;;;;;6043154;23;20019;-89
2023/01/20 02:33:17;;;;;;;0.00;0.00;;;;;;;;;;6042869;23;20045;-91
2023/01/20 02:35:43;;;;;;;0.10;0.10;;;;;;;;;;6033055;23;20015;-89
2023/01/20 02:38:23;;;;;;;0.00;0.00;;;;;;;;;;6019223;23;20019;-88
2023/01/20 02:40:53;;;;;;;0.13;0.10;;;;;;;;;;6042881;23;20108;-90
2023/01/20 02:43:30;;;;;;;0.05;0.03;;;;;;;;;;6043054;23;20011;-90
2023/01/20 02:46:01;;;;;;;0.00;0.00;;;;;;;;;;6042786;23;20015;-88
2023/01/20 02:48:38;;;;;;;0.00;0.00;;;;;;;;;;6043039;23;20062;-89
2023/01/20 02:51:19;;;;;;;0.00;0.00;;;;;;;;;;6042747;23;20015;-90
2023/01/20 02:53:51;;;;;;;1.20;1.17;;;;;;;;;;6043032;23;20011;-88
2023/01/20 02:56:18;;;;;;;0.25;0.05;;;;;;;;;;6018945;23;20029;-89
2023/01/20 02:58:48;;;;;;;0.00;0.00;;;;;;;;;;6042944;23;20021;-89
2023/01/20 03:01:17;;;;;;;0.90;0.32;;;;;;;;;;6042572;23;20452;-89
2023/01/20 03:03:44;;;;;;;0.00;0.00;;;;;;;;;;6042947;23;20448;-89
2023/01/20 03:06:13;;;;;;;0.00;0.00;;;;;;;;;;6018736;23;20015;-89
2023/01/20 03:08:40;;;;;;;0.00;0.00;;;;;;;;;;6019153;23;20026;-89
2023/01/20 03:11:08;;;;;;;0.17;0.10;;;;;;;;;;6043109;23;20046;-88
2023/01/20 03:13:36;;;;;;;0.00;0.00;;;;;;;;;;6042785;23;20015;-90
2023/01/20 03:16:04;;;;;;;0.35;0.05;;;;;;;;;;6042691;23;20121;-89
2023/01/20 03:18:30;;;;;;;0.22;0.17;;;;;;;;;;6042480;23;20037;-89
2023/01/20 03:20:57;;;;;;;0.00;0.00;;;;;;;;;;6042755;23;20554;-90
2023/01/20 03:23:24;;;;;;;0.00;0.00;;;;;;;;;;6018730;23;20019;-89
2023/01/20 03:25:50;;;;;;;0.00;0.00;;;;;;;;;;6042748;23;20015;-90
2023/01/20 03:28:16;;;;;;;0.00;0.00;;;;;;;;;;6042226;23;20019;-89
2023/01/20 03:30:42;;;;;;;0.00;0.00;;;;;;;;;;6019005;23;20015;-90
2023/01/20 03:33:08;;;;;;;0.00;0.00;;;;;;;;;;6042482;23;20019;-90
2023/01/20 03:35:34;;;;;;;0.00;0.00;;;;;;;;;;6042691;23;20218;-89
2023/01/20 03:38:00;;;;;;;0.00;0.00;;;;;;;;;;6042442;23;20390;-89
2023/01/20 03:40:29;;;;;;;0.00;0.00;;;;;;;;;;6042622;23;20015;-89
2023/01/20 03:42:55;;;;;;;0.10;0.10;;;;;;;;;;6018636;23;20034;-89
2023/01/20 03:45:45;;;;;;;0.00;0.00;;;;;;;;;;6042701;23;20015;-89
2023/01/20 03:48:23;;;;;;;0.00;0.00;;;;;;;;;;6010964;23;20464;-88
2023/01/20 03:50:57;;;;;;;0.00;0.00;;;;;;;;;;6019483;23;20018;-89
2023/01/20 03:53:44;;;;;;;0.00;0.00;;;;;;;;;;6018760;23;20014;-89
2023/01/20 03:56:10;;;;;;;0.00;0.00;;;;;;;;;;6042859;23;20015;-90
2023/01/20 03:58:38;;;;;;;0.32;0.32;;;;;;;;;;6018741;23;20322;-89
2023/01/20 04:01:07;;;;;;;0.00;0.00;;;;;;;;;;6018849;23;20085;-89
2023/01/20 04:03:35;;;;;;;0.00;0.00;;;;;;;;;;6018433;23;20090;-89
2023/01/20 04:06:02;;;;;;;0.20;0.10;;;;;;;;;;6018616;23;20022;-89
2023/01/20 04:08:30;;;;;;;0.20;0.10;;;;;;;;;;6042258;23;20022;-89
2023/01/20 04:10:57;;;;;;;0.00;0.00;;;;;;;;;;6042322;23;20062;-90
2023/01/20 04:13:23;;;;;;;0.38;0.17;;;;;;;;;;6041968;23;20015;-89
2023/01/20 04:15:50;;;;;;;0.10;0.10;;;;;;;;;;6042311;23;20019;-89
2023/01/20 04:18:20;;;;;;;0.00;0.00;;;;;;;;;;6018391;23;20057;-89
2023/01/20 04:20:48;;;;;;;0.00;0.00;;;;;;;;;;6042307;23;20065;-89
2023/01/20 04:23:27;;;;;;;0.00;0.00;;;;;;;;;;6042123;23;20057;-90
2023/01/20 04:25:53;;;;;;;0.00;0.00;;;;;;;;;;6042302;23;20019;-90
2023/01/20 04:28:19;;;;;;;0.00;0.00;;;;;;;;;;6041785;23;20026;-89
2023/01/20 04:30:45;;;;;;;0.00;0.00;;;;;;;;;;6018543;23;20051;-90
2023/01/20 04:33:11;;;;;;;0.00;0.00;;;;;;;;;;6042098;23;20010;-90
2023/01/20 04:35:37;;;;;;;0.00;0.00;;;;;;;;;;6018710;23;20377;-91
2023/01/20 04:38:03;;;;;;;0.00;0.00;;;;;;;;;;6018664;23;20070;-89
2023/01/20 04:40:29;;;;;;;0.00;0.00;;;;;;;;;;6042303;23;20090;-90
2023/01/20 04:42:55;;;;;;;0.00;0.00;;;;;;;;;;6042099;23;20051;-90
2023/01/20 04:45:21;;;;;;;0.00;0.00;;;;;;;;;;6042224;23;20015;-90
2023/01/20 04:47:47;;;;;;;0.00;0.00;;;;;;;;;;6041745;23;20022;-89
2023/01/20 04:50:13;;;;;;;0.00;0.00;;;;;;;;;;6018633;23;20038;-89
2023/01/20 04:52:39;;;;;;;0.00;0.00;;;;;;;;;;6018176;23;20015;-89
2023/01/20 04:55:06;;;;;;;0.00;0.00;;;;;;;;;;6042278;23;20014;-89
2023/01/20 04:57:32;;;;;;;0.00;0.00;;;;;;;;;;6018124;23;20014;-89
2023/01/20 04:59:58;;;;;;;0.10;0.05;;;;;;;;;;6042189;23;20040;-89
2023/01/20 05:02:24;;;;;;;0.85;0.35;;;;;;;;;;6018197;23;20010;-90
2023/01/20 05:04:50;;;;;;;0.00;0.00;;;;;;;;;;6019640;23;20019;-90
2023/01/20 05:07:16;;;;;;;0.40;0.40;;;;;;;;;;6041664;23;20019;-88
2023/01/20 05:09:42;;;;;;;0.10;0.10;;;;;;;;;;6018519;23;20389;-89
2023/01/20 05:12:08;;;;;;;0.00;0.00;;;;;;;;;;6042125;23;20070;-89
2023/01/20 05:14:34;;;;;;;0.00;0.00;;;;;;;;;;6041817;23;20404;-89
2023/01/20 05:16:59;;;;;;;0.00;0.00;;;;;;;;;;6018290;23;20026;-90
2023/01/20 05:19:25;;;;;;;0.00;0.00;;;;;;;;;;6042123;23;20345;-89
2023/01/20 05:21:51;;;;;;;0.00;0.00;;;;;;;;;;6042105;23;20014;-91
2023/01/20 05:24:17;;;;;;;0.00;0.00;;;;;;;;;;6041837;23;20460;-88
2023/01/20 05:26:43;;;;;;;0.00;0.00;;;;;;;;;;6042989;23;20015;-90
2023/01/20 05:29:09;;;;;;;0.00;0.00;;;;;;;;;;6020416;23;20086;-90
2023/01/20 05:31:37;;;;;;;0.00;0.00;;;;;;;;;;6044133;23;20015;-89
2023/01/20 05:34:03;;;;;;;0.00;0.00;;;;;;;;;;6019769;23;20011;-90
2023/01/20 05:36:31;;;;;;;0.00;0.00;;;;;;;;;;6020008;23;20448;-89
2023/01/20 05:38:57;;;;;;;0.00;0.00;;;;;;;;;;6043554;23;20023;-89
2023/01/20 05:41:23;;;;;;;0.00;0.00;;;;;;;;;;6020013;23;20014;-89
2023/01/20 05:43:52;;;;;;;0.00;0.00;;;;;;;;;;6043481;23;20018;-89
2023/01/20 05:46:18;;;;;;;0.00;0.00;;;;;;;;;;6043414;23;20354;-89
2023/01/20 05:48:44;;;;;;;0.00;0.00;;;;;;;;;;6043360;23;20069;-89
2023/01/20 05:51:10;;;;;;;0.00;0.00;;;;;;;;;;6043546;23;20011;-89
2023/01/20 05:53:36;;;;;;;0.00;0.00;;;;;;;;;;6043346;23;20472;-90
2023/01/20 05:56:03;;;;;;;0.00;0.00;;;;;;;;;;6019729;23;20015;-89
2023/01/20 05:58:30;;;;;;;0.05;0.03;;;;;;;;;;6043193;23;20344;-90
2023/01/20 06:01:03;;;;;;;0.00;0.00;;;;;;;;;;6043442;23;20018;-90
2023/01/20 06:03:29;;;;;;;0.00;0.00;;;;;;;;;;6043220;23;20015;-88
2023/01/20 06:06:02;;;;;;;0.00;0.00;;;;;;;;;;6043400;23;20346;-90
2023/01/20 06:08:28;;;;;;;0.00;0.00;;;;;;;;;;6043101;23;20022;-89
2023/01/20 06:10:54;;;;;;;0.00;0.00;;;;;;;;;;6043588;23;20018;-88
2023/01/20 06:13:20;;;;;;;0.00;0.00;;;;;;;;;;6043159;23;20046;-89
2023/01/20 06:15:53;;;;;;;0.00;0.00;;;;;;;;;;6043400;23;20015;-89
2023/01/20 06:18:19;;;;;;;0.00;0.00;;;;;;;;;;6019161;23;20019;-89
2023/01/20 06:20:45;;;;;;;0.00;0.00;;;;;;;;;;6043248;23;20017;-88
2023/01/20 06:23:11;;;;;;;0.00;0.00;;;;;;;;;;6043077;23;20343;-88
2023/01/20 06:25:37;;;;;;;0.00;0.00;;;;;;;;;;6043336;23;20022;-89
2023/01/20 06:28:03;;;;;;;0.00;0.00;;;;;;;;;;6042561;23;20022;-88
2023/01/20 06:30:30;;;;;;;1.38;0.28;;;;;;;;;;6043164;23;20053;-89
2023/01/20 06:32:56;;;;;;;0.00;0.00;;;;;;;;;;6043295;23;20033;-88
2023/01/20 06:35:23;;;;;;;0.00;0.00;;;;;;;;;;6043030;23;20094;-88
2023/01/20 06:37:48;;;;;;;0.75;0.05;;;;;;;;;;6042875;23;20014;-90
2023/01/20 06:40:15;;;;;;;0.00;0.00;;;;;;;;;;6042938;23;20150;-89
2023/01/20 06:42:41;;;;;;;0.00;0.00;;;;;;;;;;6019516;23;20018;-89
2023/01/20 06:45:07;;;;;;;0.00;0.00;;;;;;;;;;6042802;23;20014;-88
2023/01/20 06:47:33;;;;;;;0.00;0.00;;;;;;;;;;6019292;23;20317;-89
2023/01/20 06:49:59;;;;;;;0.03;0.03;;;;;;;;;;6019238;23;20094;-89
2023/01/20 06:52:25;;;;;;;0.00;0.00;;;;;;;;;;6043067;23;20007;-89
2023/01/20 06:54:51;;;;;;;0.00;0.00;;;;;;;;;;6042780;23;20022;-89
2023/01/20 06:57:17;;;;;;;0.00;0.00;;;;;;;;;;6042973;23;20081;-89
2023/01/20 06:59:43;;;;;;;0.05;0.03;;;;;;;;;;6042792;23;20023;-89
2023/01/20 07:02:11;;;;;;;0.00;0.00;;;;;;;;;;6042971;23;20074;-88
2023/01/20 07:04:37;;;;;;;0.00;0.00;;;;;;;;;;6043089;23;20014;-88
2023/01/20 07:07:03;;;;;;;0.00;0.00;;;;;;;;;;6042844;23;20532;-89
2023/01/20 07:09:29;;;;;;;0.00;0.00;;;;;;;;;;6042704;23;20090;-89
2023/01/20 07:11:55;;;;;;;0.57;0.10;;;;;;;;;;6042887;23;20015;-89
2023/01/20 07:14:21;;;;;;;0.00;0.00;;;;;;;;;;6018896;23;20015;-89
2023/01/20 07:16:47;;;;;;;0.00;0.00;;;;;;;;;;6019188;23;20019;-89
2023/01/20 07:19:13;;;;;;;0.20;0.10;;;;;;;;;;6018753;23;20026;-89
2023/01/20 07:21:39;;;;;;;0.00;0.00;;;;;;;;;;6042760;23;20348;-90
2023/01/20 07:24:05;;;;;;;0.00;0.00;;;;;;;;;;6042575;23;20098;-89
2023/01/20 07:26:31;;;;;;;0.00;0.00;;;;;;;;;;6042542;23;20015;-89
2023/01/20 07:28:58;;;;;;;0.00;0.00;;;;;;;;;;6018747;23;20380;-92
2023/01/20 07:31:26;;;;;;;0.45;0.05;;;;;;;;;;6019188;23;20015;-91
2023/01/20 07:33:53;;;;;;;0.00;0.00;;;;;;;;;;6042624;23;20097;-91
2023/01/20 07:36:19;;;;;;;0.00;0.00;;;;;;;;;;6042829;23;20249;-91
2023/01/20 07:38:49;;;;;;;0.00;0.00;;;;;;;;;;6019243;23;20241;-91
2023/01/20 07:41:16;;;;;;;0.00;0.00;;;;;;;;;;6043179;23;20102;-91
2023/01/20 07:43:43;;;;;;;0.00;0.00;;;;;;;;;;6019844;23;20022;-92
2023/01/20 07:46:09;;;;;;;0.43;0.00;;;;;;;;;;6042888;23;20015;-91
2023/01/20 07:48:36;;;;;;;0.00;0.00;;;;;;;;;;6044625;23;20322;-92
2023/01/20 07:51:21;;;;;;;0.00;0.00;;;;;;;;;;6020243;23;20015;-93
2023/01/20 07:53:49;;;;;;;0.00;0.00;;;;;;;;;;6041317;23;20011;-95
2023/01/20 07:56:19;;;;;;;0.00;0.00;;;;;;;;;;6025749;23;20021;-93
2023/01/20 07:58:51;;;;;;;0.00;0.00;;;;;;;;;;6043766;23;20022;-93
2023/01/20 08:01:18;;;;;;;0.98;0.55;;;;;;;;;;6043224;23;20014;-92
2023/01/20 08:03:45;;;;;;;1.00;0.10;;;;;;;;;;6019263;23;20101;-93
2023/01/20 08:06:12;;;;;;;0.00;0.00;;;;;;;;;;6018806;23;20015;-93
2023/01/20 08:08:38;;;;;;;0.70;0.52;;;;;;;;;;6019228;23;20026;-92
2023/01/20 08:11:05;;;;;;;1.75;0.00;;;;;;;;;;6019450;23;20014;-93
2023/01/20 08:13:31;;;;;;;0.00;0.00;;;;;;;;;;6043067;23;20015;-93
2023/01/20 08:16:01;;;;;;;0.00;0.00;;;;;;;;;;6042772;23;20022;-93
2023/01/20 08:18:29;;;;;;;0.00;0.00;;;;;;;;;;6043449;23;20046;-93
2023/01/20 08:20:55;;;;;;;0.00;0.00;;;;;;;;;;6019155;23;20027;-93
2023/01/20 08:23:21;;;;;;;0.00;0.00;;;;;;;;;;6019712;23;20333;-93
2023/01/20 08:25:47;;;;;;;0.00;0.00;;;;;;;;;;6018866;23;20015;-92
2023/01/20 08:28:13;;;;;;;0.00;0.00;;;;;;;;;;6018646;23;20019;-92
2023/01/20 08:30:39;;;;;;;0.00;0.00;;;;;;;;;;6018801;23;20353;-93
2023/01/20 08:33:05;;;;;;;0.00;0.00;;;;;;;;;;6043684;23;20011;-94
2023/01/20 08:35:31;;;;;;;0.00;0.00;;;;;;;;;;6043556;23;20341;-93
2023/01/20 08:37:57;;;;;;;0.00;0.00;;;;;;;;;;6019188;23;20042;-92
2023/01/20 08:40:23;;;;;;;0.10;0.00;;;;;;;;;;6019089;23;20050;-94
2023/01/20 08:42:49;;;;;;;0.00;0.00;;;;;;;;;;6019647;23;20046;-92
2023/01/20 08:45:15;;;;;;;0.00;0.00;;;;;;;;;;6019520;23;20026;-92
2023/01/20 08:47:44;;;;;;;0.00;0.00;;;;;;;;;;6019064;23;20015;-93
2023/01/20 08:50:11;;;;;;;0.00;0.00;;;;;;;;;;6019080;23;20018;-92
2023/01/20 08:52:37;;;;;;;0.00;0.00;;;;;;;;;;6019291;23;20033;-93
2023/01/20 08:55:03;;;;;;;0.00;0.00;;;;;;;;;;6019610;23;20011;-94
2023/01/20 08:57:29;;;;;;;0.30;0.08;;;;;;;;;;6019079;23;20019;-93
2023/01/20 08:59:55;;;;;;;0.28;0.28;;;;;;;;;;6043874;23;20026;-94
2023/01/20 09:02:23;;;;;;;0.00;0.00;;;;;;;;;;6044761;23;20022;-94
2023/01/20 09:04:49;;;;;;;1.65;0.60;;;;;;;;;;6020991;23;20026;-95
2023/01/20 09:07:15;;;;;;;0.10;0.10;;;;;;;;;;6045021;23;20063;-96
2023/01/20 09:09:41;;;;;;;0.00;0.00;;;;;;;;;;6022870;23;20022;-96
2023/01/20 09:12:08;;;;;;;0.00;0.00;;;;;;;;;;6021282;23;20011;-94
2023/01/20 09:14:34;;;;;;;0.00;0.00;;;;;;;;;;6020515;23;20022;-94
2023/01/20 09:17:01;;;;;;;1.38;0.50;;;;;;;;;;6020478;23;20015;-93
2023/01/20 09:19:27;;;;;;;0.00;0.00;;;;;;;;;;6044435;23;20025;-93
2023/01/20 09:21:53;;;;;;;0.00;0.00;;;;;;;;;;6020362;23;20096;-93
2023/01/20 09:24:19;;;;;;;0.00;0.00;;;;;;;;;;6020526;23;20027;-93
2023/01/20 09:26:47;;;;;;;0.00;0.00;;;;;;;;;;6020052;23;20043;-93
2023/01/20 09:29:14;;;;;;;0.00;0.00;;;;;;;;;;6020752;23;20030;-93
2023/01/20 09:31:44;;;;;;;0.00;0.00;;;;;;;;;;6044229;23;20018;-92
2023/01/20 09:34:13;;;;;;;0.00;0.00;;;;;;;;;;6020818;23;20022;-93
2023/01/20 09:36:39;;;;;;;0.00;0.00;;;;;;;;;;6044056;23;20490;-94
2023/01/20 09:44:47;;;;;;;0.00;0.00;;;;;;;;;;6043633;23;20066;-91
2023/01/20 09:47:19;;;;;;;0.00;0.00;;;;;;;;;;6020007;23;20042;-94
2023/01/20 09:53:04;;;;;;;0.00;0.00;;;;;;;;;;6044934;23;20018;-95
2023/01/20 09:55:39;;;;;;;0.00;0.00;;;;;;;;;;6020572;23;20014;-94
2023/01/20 09:58:12;;;;;;;0.00;0.00;;;;;;;;;;6021144;23;20441;-94
2023/01/20 10:00:40;;;;;;;0.00;0.00;;;;;;;;;;6020818;23;20102;-95
2023/01/20 10:03:13;;;;;;;0.20;0.05;;;;;;;;;;6023003;23;20007;-95
2023/01/20 10:05:40;;;;;;;0.00;0.00;;;;;;;;;;6023898;23;20014;-90
2023/01/20 10:08:06;;;;;;;0.00;0.00;;;;;;;;;;6047945;23;20015;-94
2023/01/20 10:10:40;;;;;;;0.38;0.35;;;;;;;;;;6025693;23;20129;-94
2023/01/20 10:13:10;;;;;;;0.00;0.00;;;;;;;;;;6023487;23;20468;-95
2023/01/20 10:15:37;;;;;;;0.00;0.00;;;;;;;;;;6045207;23;20015;-95
2023/01/20 10:18:05;;;;;;;0.45;0.25;;;;;;;;;;6025392;23;20101;-95
2023/01/20 10:20:50;;;;;;;0.00;0.00;;;;;;;;;;6022435;23;20015;-94
2023/01/20 10:23:20;;;;;;;0.28;0.00;;;;;;;;;;6020851;23;20078;-94
2023/01/20 10:25:51;;;;;;;0.00;0.00;;;;;;;;;;6044276;23;20070;-93
2023/01/20 10:28:26;;;;;;;0.45;0.30;;;;;;;;;;6021036;23;20070;-94
2023/01/20 10:30:52;;;;;;;0.00;0.00;;;;;;;;;;6022997;23;20015;-94
2023/01/20 10:33:22;;;;;;;0.00;0.00;;;;;;;;;;6028134;23;20460;-94
2023/01/20 10:35:53;;;;;;;0.00;0.00;;;;;;;;;;6022206;23;20623;-93
2023/01/20 10:38:29;;;;;;;0.00;0.00;;;;;;;;;;6021776;23;20089;-93
2023/01/20 10:41:00;;;;;;;0.00;0.00;;;;;;;;;;6021779;23;20457;-92
2023/01/20 10:43:26;;;;;;;0.13;0.10;;;;;;;;;;6021272;23;20015;-93
2023/01/20 10:46:12;;;;;;;0.00;0.00;;;;;;;;;;6020210;23;20015;-92
2023/01/20 10:48:44;;;;;;;0.10;0.05;;;;;;;;;;6041947;23;20015;-92
2023/01/20 10:51:10;;;;;;;0.00;0.00;;;;;;;;;;6021139;23;20022;-93
2023/01/20 10:53:44;;;;;;;0.00;0.00;;;;;;;;;;6044293;23;20015;-92
2023/01/20 10:56:10;;;;;;;0.00;0.00;;;;;;;;;;6020168;23;20019;-93
2023/01/20 10:58:39;;;;;;;0.00;0.00;;;;;;;;;;6020875;23;20475;-91
2023/01/20 11:01:09;;;;;;;0.00;0.00;;;;;;;;;;6019791;23;20038;-93
2023/01/20 11:03:37;;;;;;;0.30;0.10;;;;;;;;;;6019141;23;20100;-91
2023/01/20 11:06:03;;;;;;;0.00;0.00;;;;;;;;;;6019174;23;20015;-91
2023/01/20 11:08:29;;;;;;;0.00;0.00;;;;;;;;;;6043310;23;20066;-92
2023/01/20 11:11:00;;;;;;;0.05;0.03;;;;;;;;;;6043026;23;20011;-92
2023/01/20 11:13:26;;;;;;;0.00;0.00;;;;;;;;;;6019695;23;20015;-92
2023/01/20 11:16:03;;;;;;;0.03;0.00;;;;;;;;;;6019427;23;20021;-91
2023/01/20 11:18:30;;;;;;;0.00;0.00;;;;;;;;;;6019825;23;20443;-93
2023/01/20 11:20:59;;;;;;;0.38;0.28;;;;;;;;;;6043517;23;20010;-92
2023/01/20 11:23:37;;;;;;;0.25;0.10;;;;;;;;;;6018810;23;20093;-92
2023/01/20 11:26:11;;;;;;;0.98;0.55;;;;;;;;;;6018962;23;20011;-93
2023/01/20 11:28:44;;;;;;;0.00;0.00;;;;;;;;;;6019026;23;20019;-92
2023/01/20 11:31:10;;;;;;;0.80;0.80;;;;;;;;;;6019321;23;20015;-91
2023/01/20 11:33:36;;;;;;;0.10;0.00;;;;;;;;;;6042847;23;20011;-91
2023/01/20 11:36:04;;;;;;;0.00;0.00;;;;;;;;;;6019187;23;20015;-92
2023/01/20 11:38:31;;;;;;;0.00;0.00;;;;;;;;;;6019133;23;20050;-92
2023/01/20 11:40:58;;;;;;;0.00;0.00;;;;;;;;;;6043261;23;20015;-94
2023/01/20 11:43:28;;;;;;;0.03;0.03;;;;;;;;;;6018929;23;20063;-91
2023/01/20 11:46:09;;;;;;;0.55;0.30;;;;;;;;;;6042644;23;20015;-92
2023/01/20 11:48:35;;;;;;;0.00;0.00;;;;;;;;;;6019148;23;20011;-90
2023/01/20 11:51:02;;;;;;;3.30;0.68;;;;;;;;;;6019913;23;20015;-90
2023/01/20 11:53:32;;;;;;;0.00;0.00;;;;;;;;;;6018860;23;20047;-91
2023/01/20 11:56:02;;;;;;;0.00;0.00;;;;;;;;;;6019069;23;20465;-91
2023/01/20 11:58:31;;;;;;;0.00;0.00;;;;;;;;;;6040768;23;20015;-92
2023/01/20 12:01:07;;;;;;;0.00;0.00;;;;;;;;;;6042977;23;20015;-91
2023/01/20 12:03:52;;;;;;;0.00;0.00;;;;;;;;;;6018758;23;20018;-91
2023/01/20 12:06:27;;;;;;;0.80;0.52;;;;;;;;;;6042334;23;20015;-92
2023/01/20 12:09:10;;;;;;;0.00;0.00;;;;;;;;;;6042915;23;20018;-91
2023/01/20 12:11:49;;;;;;;0.00;0.00;;;;;;;;;;6042871;23;20350;-91
2023/01/20 12:14:22;;;;;;;0.00;0.00;;;;;;;;;;6018772;23;20066;-91
2023/01/20 12:17:06;;;;;;;0.00;0.00;;;;;;;;;;6042388;23;20429;-91
2023/01/20 12:19:41;;;;;;;0.00;0.00;;;;;;;;;;6042681;23;20014;-92
2023/01/20 12:22:17;;;;;;;0.75;0.65;;;;;;;;;;6042427;23;20018;-93
2023/01/20 12:25:06;;;;;;;0.00;0.00;;;;;;;;;;6019020;23;20104;-91
2023/01/20 12:27:33;;;;;;;0.40;0.15;;;;;;;;;;6018371;23;20050;-92
2023/01/20 12:30:01;;;;;;;0.00;0.00;;;;;;;;;;6042493;23;20058;-92
2023/01/20 12:32:28;;;;;;;0.00;0.00;;;;;;;;;;6018577;23;20011;-90
2023/01/20 12:34:54;;;;;;;0.47;0.40;;;;;;;;;;6043434;23;20022;-92
2023/01/20 12:37:20;;;;;;;0.13;0.10;;;;;;;;;;6044135;23;20015;-91
2023/01/20 12:39:56;;;;;;;0.00;0.00;;;;;;;;;;6044473;23;20057;-91
2023/01/20 12:42:28;;;;;;;3.25;0.30;;;;;;;;;;6020433;23;20015;-94
2023/01/20 12:44:54;;;;;;;0.00;0.00;;;;;;;;;;6044443;23;20048;-92
2023/01/20 12:47:39;;;;;;;0.00;0.00;;;;;;;;;;6044003;23;20051;-91
2023/01/20 12:50:11;;;;;;;0.00;0.00;;;;;;;;;;6020969;23;20179;-91
2023/01/20 12:52:45;;;;;;;0.00;0.00;;;;;;;;;;6020552;23;20179;-92
2023/01/20 12:55:30;;;;;;;0.00;0.00;;;;;;;;;;6020998;23;20015;-93
2023/01/20 12:57:59;;;;;;;0.00;0.00;;;;;;;;;;6044050;23;20015;-90
2023/01/20 13:00:25;;;;;;;0.00;0.00;;;;;;;;;;6020697;23;20018;-91
2023/01/20 13:03:21;;;;;;;0.00;0.00;;;;;;;;;;6021215;23;20019;-93
2023/01/20 13:05:56;;;;;;;0.03;0.00;;;;;;;;;;6008975;23;20484;-91
2023/01/20 13:08:25;;;;;;;0.00;0.00;;;;;;;;;;6044104;23;20015;-92
2023/01/20 13:10:56;;;;;;;2.30;0.35;;;;;;;;;;6020567;23;20445;-91
2023/01/20 13:13:40;;;;;;;0.17;0.05;;;;;;;;;;6044150;23;20015;-90
2023/01/20 13:16:17;;;;;;;0.28;0.28;;;;;;;;;;6020244;23;20341;-91
2023/01/20 13:18:46;;;;;;;0.00;0.00;;;;;;;;;;6020342;23;20516;-92
2023/01/20 13:21:19;;;;;;;0.40;0.32;;;;;;;;;;6020444;23;20431;-91
2023/01/20 13:23:46;;;;;;;0.00;0.00;;;;;;;;;;6020169;23;20015;-91
2023/01/20 13:26:13;;;;;;;0.00;0.00;;;;;;;;;;6020115;23;20022;-93
2023/01/20 13:28:49;;;;;;;0.00;0.00;;;;;;;;;;6020133;23;20078;-88
2023/01/20 13:31:29;;;;;;;0.70;0.20;;;;;;;;;;6020509;23;20018;-92
2023/01/20 13:34:15;;;;;;;0.00;0.00;;;;;;;;;;6020212;23;20386;-93
2023/01/20 13:37:01;;;;;;;0.00;0.00;;;;;;;;;;6020019;23;20019;-93
2023/01/20 13:39:38;;;;;;;0.10;0.03;;;;;;;;;;6020072;23;20397;-95
2023/01/20 13:42:24;;;;;;;0.00;0.00;;;;;;;;;;6020898;23;20019;-93
2023/01/20 13:45:09;;;;;;;0.00;0.00;;;;;;;;;;6019986;23;20026;-93
2023/01/20 13:47:54;;;;;;;0.32;0.22;;;;;;;;;;6019273;23;20019;-91
2023/01/20 13:50:24;;;;;;;0.00;0.00;;;;;;;;;;6020347;23;20070;-93
2023/01/20 13:52:53;;;;;;;0.00;0.00;;;;;;;;;;6043419;23;20097;-93
2023/01/20 13:55:38;;;;;;;0.45;0.45;;;;;;;;;;6020025;23;20015;-92
2023/01/20 13:58:04;;;;;;;0.00;0.00;;;;;;;;;;6043471;23;20400;-93
2023/01/20 14:00:30;;;;;;;0.00;0.00;;;;;;;;;;6043652;23;20019;-92
2023/01/20 14:02:56;;;;;;;0.00;0.00;;;;;;;;;;6043666;23;20019;-93
2023/01/20 14:05:29;;;;;;;0.10;0.10;;;;;;;;;;6020082;23;20015;-92
2023/01/20 14:07:55;;;;;;;0.00;0.00;;;;;;;;;;6019707;23;20019;-93
2023/01/20 14:10:21;;;;;;;0.20;0.15;;;;;;;;;;6043500;23;20049;-92
2023/01/20 14:12:47;;;;;;;0.28;0.10;;;;;;;;;;6043367;23;20018;-93
2023/01/20 14:15:27;;;;;;;0.00;0.00;;;;;;;;;;6043554;23;20011;-93
2023/01/20 14:17:57;;;;;;;0.08;0.03;;;;;;;;;;6019394;23;20456;-93
2023/01/20 14:20:24;;;;;;;0.00;0.00;;;;;;;;;;6020660;23;20019;-93
2023/01/20 14:22:51;;;;;;;0.00;0.00;;;;;;;;;;6043529;23;20070;-92
2023/01/20 14:25:21;;;;;;;0.00;0.00;;;;;;;;;;6019933;23;20015;-93
2023/01/20 14:27:47;;;;;;;2.60;0.55;;;;;;;;;;6043236;23;20334;-93
2023/01/20 14:30:13;;;;;;;0.00;0.00;;;;;;;;;;6020459;23;20114;-93
2023/01/20 14:32:40;;;;;;;0.00;0.00;;;;;;;;;;6020089;23;20091;-92
2023/01/20 14:35:13;;;;;;;0.00;0.00;;;;;;;;;;6019725;23;20062;-95
2023/01/20 14:37:39;;;;;;;0.28;0.20;;;;;;;;;;6043597;23;20029;-93
2023/01/20 14:40:05;;;;;;;0.05;0.03;;;;;;;;;;6020220;23;20090;-91
2023/01/20 14:42:31;;;;;;;0.00;0.00;;;;;;;;;;6043393;23;20074;-90
2023/01/20 14:44:57;;;;;;;0.00;0.00;;;;;;;;;;6019863;23;20014;-91
2023/01/20 14:47:24;;;;;;;1.92;0.73;;;;;;;;;;6043266;23;20050;-89
2023/01/20 14:49:52;;;;;;;0.00;0.00;;;;;;;;;;6043477;23;20046;-92
2023/01/20 14:52:27;;;;;;;0.25;0.13;;;;;;;;;;6044145;23;20342;-92
2023/01/20 14:54:55;;;;;;;0.08;0.03;;;;;;;;;;6020032;23;20014;-91
2023/01/20 14:57:34;;;;;;;0.00;0.00;;;;;;;;;;6019811;23;20019;-92
2023/01/20 15:00:19;;;;;;;0.00;0.00;;;;;;;;;;6019977;23;20306;-92
2023/01/20 15:02:53;;;;;;;0.00;0.00;;;;;;;;;;6044040;23;20460;-91